Time;durP1;ratioP1;P1;durP2;ratioP2;P2;SDS_P1;SDS_P2;PMS_P1;PMS_P2;Temp;Humidity;BMP_temperature;BMP_pressure;BME280_temperature;BME280_humidity;BME280_pressure;Samples;Min_cycle;Max_cycle;Signal;HPM_P1;HPM_P2
2023/12/29 00:02:02;;;;;;;1.95;1.23;;;10.10;99.90;;;;;;4977488;28;20050;-71
2023/12/29 00:04:27;;;;;;;3.65;1.20;;;10.20;99.90;;;;;;4977586;28;20411;-72
2023/12/29 00:06:53;;;;;;;1.52;1.25;;;10.20;99.90;;;;;;4977649;28;20042;-72
2023/12/29 00:09:21;;;;;;;2.70;1.40;;;10.20;99.90;;;;;;4973776;28;20049;-72
2023/12/29 00:11:49;;;;;;;2.70;1.48;;;10.20;99.90;;;;;;4975956;28;20106;-71
2023/12/29 00:14:14;;;;;;;4.57;1.55;;;10.20;99.90;;;;;;4973258;28;20034;-73
2023/12/29 00:16:40;;;;;;;3.95;1.30;;;10.20;99.90;;;;;;4980877;28;20042;-72
2023/12/29 00:19:08;;;;;;;3.97;1.40;;;10.30;99.90;;;;;;4974885;28;20316;-72
2023/12/29 00:21:35;;;;;;;2.13;1.17;;;10.30;99.90;;;;;;4973379;28;20030;-72
2023/12/29 00:24:01;;;;;;;3.28;1.63;;;10.30;99.90;;;;;;4972067;28;20038;-71
2023/12/29 00:26:26;;;;;;;2.22;1.10;;;10.30;99.90;;;;;;4971120;28;20037;-71
2023/12/29 00:28:52;;;;;;;4.28;1.42;;;10.30;99.90;;;;;;4975385;28;20034;-71
2023/12/29 00:31:17;;;;;;;2.10;1.27;;;10.30;99.90;;;;;;4979524;28;20030;-72
2023/12/29 00:33:43;;;;;;;3.20;1.70;;;10.30;99.90;;;;;;4970361;28;20105;-72
2023/12/29 00:36:18;;;;;;;3.30;1.67;;;10.30;99.90;;;;;;4971830;28;20039;-71
2023/12/29 00:38:44;;;;;;;1.58;1.38;;;10.30;99.90;;;;;;4970991;28;20035;-71
2023/12/29 00:41:15;;;;;;;3.97;1.42;;;10.30;99.90;;;;;;4975450;28;20033;-72
2023/12/29 00:43:43;;;;;;;2.58;1.58;;;10.30;99.90;;;;;;4977204;28;20023;-71
2023/12/29 00:46:14;;;;;;;2.00;1.30;;;10.30;99.90;;;;;;4973100;28;20023;-72
2023/12/29 00:48:40;;;;;;;3.63;1.33;;;10.40;99.90;;;;;;4977110;28;20078;-71
2023/12/29 00:51:06;;;;;;;2.85;1.80;;;10.40;99.90;;;;;;4972190;28;20418;-72
2023/12/29 00:53:33;;;;;;;2.53;1.40;;;10.40;99.90;;;;;;4975496;28;20086;-72
2023/12/29 00:55:59;;;;;;;1.70;1.38;;;10.40;99.90;;;;;;4968319;23;20038;-79
2023/12/29 00:58:25;;;;;;;2.78;1.50;;;10.40;99.90;;;;;;4952492;28;20035;-78
2023/12/29 01:00:50;;;;;;;3.47;1.75;;;10.40;99.90;;;;;;4956485;28;20041;-81
2023/12/29 01:03:16;;;;;;;2.65;1.45;;;10.50;99.90;;;;;;4939789;28;20089;-77
2023/12/29 01:05:42;;;;;;;2.65;1.42;;;10.50;99.90;;;;;;4954942;28;20031;-78
2023/12/29 01:08:07;;;;;;;4.65;1.55;;;10.50;99.90;;;;;;4965476;28;20054;-77
2023/12/29 01:10:33;;;;;;;2.63;1.50;;;10.50;99.90;;;;;;4949407;28;20432;-78
2023/12/29 01:12:59;;;;;;;2.95;1.70;;;10.50;99.90;;;;;;4955147;28;20027;-78
2023/12/29 01:15:24;;;;;;;3.40;1.70;;;10.50;99.90;;;;;;4952139;28;20093;-78
2023/12/29 01:17:50;;;;;;;2.38;1.70;;;10.50;99.90;;;;;;4951902;28;20493;-78
2023/12/29 01:20:15;;;;;;;5.70;1.75;;;10.50;99.90;;;;;;4948956;28;20106;-78
2023/12/29 01:22:41;;;;;;;3.35;1.80;;;10.50;99.90;;;;;;4952011;28;20363;-78
2023/12/29 01:25:07;;;;;;;2.65;1.63;;;10.50;99.90;;;;;;4953400;28;20031;-78
2023/12/29 01:27:32;;;;;;;4.07;1.88;;;10.40;99.90;;;;;;4952651;28;20027;-77
2023/12/29 01:29:59;;;;;;;2.55;1.60;;;10.50;99.90;;;;;;4952166;28;20063;-79
2023/12/29 01:32:28;;;;;;;3.47;2.13;;;10.40;99.90;;;;;;4954298;28;20114;-78
2023/12/29 01:34:54;;;;;;;4.05;2.03;;;10.40;99.90;;;;;;4971347;28;20038;-78
2023/12/29 01:37:19;;;;;;;4.75;1.67;;;10.30;99.90;;;;;;4950702;28;20081;-78
2023/12/29 01:39:45;;;;;;;5.10;1.63;;;10.30;99.90;;;;;;4952119;28;20375;-79
2023/12/29 01:42:11;;;;;;;2.72;1.80;;;10.30;99.90;;;;;;4965320;28;20504;-78
2023/12/29 01:44:37;;;;;;;4.28;1.98;;;10.30;99.90;;;;;;4951139;28;20060;-79
2023/12/29 01:47:05;;;;;;;3.17;1.60;;;10.30;99.90;;;;;;4952801;28;20042;-78
2023/12/29 01:49:33;;;;;;;2.70;1.88;;;10.30;99.90;;;;;;4969291;28;20030;-78
2023/12/29 01:52:00;;;;;;;4.10;1.70;;;10.30;99.90;;;;;;4948172;28;20122;-78
2023/12/29 01:54:34;;;;;;;3.47;1.73;;;10.30;99.90;;;;;;4955552;28;20505;-78
2023/12/29 01:57:00;;;;;;;4.25;1.70;;;10.20;99.90;;;;;;4953436;28;20033;-79
2023/12/29 01:59:27;;;;;;;2.95;1.77;;;10.20;99.90;;;;;;4950050;28;20382;-78
2023/12/29 02:01:56;;;;;;;3.00;1.90;;;10.20;99.90;;;;;;4949277;29;20075;-78
2023/12/29 02:04:24;;;;;;;2.47;1.80;;;10.20;99.90;;;;;;4953226;28;20032;-78
2023/12/29 02:06:50;;;;;;;2.40;1.50;;;10.20;99.90;;;;;;4952268;29;20078;-79
2023/12/29 02:09:19;;;;;;;5.57;1.92;;;10.20;99.90;;;;;;4954386;28;20031;-75
2023/12/29 02:11:45;;;;;;;3.53;1.65;;;10.20;99.90;;;;;;4946426;28;20395;-78
2023/12/29 02:14:11;;;;;;;3.35;2.00;;;10.10;99.90;;;;;;4949157;28;20035;-78
2023/12/29 02:16:40;;;;;;;4.40;2.10;;;10.10;99.90;;;;;;4946861;28;20035;-77
2023/12/29 02:19:20;;;;;;;2.28;1.58;;;10.20;99.90;;;;;;4953899;28;20118;-80
2023/12/29 02:21:46;;;;;;;4.30;2.30;;;10.10;99.90;;;;;;4946982;28;20087;-78
2023/12/29 02:24:11;;;;;;;3.45;1.88;;;10.10;99.90;;;;;;4953411;28;20039;-78
2023/12/29 02:26:38;;;;;;;3.25;2.28;;;10.10;99.90;;;;;;4950050;28;20035;-78
2023/12/29 02:29:08;;;;;;;2.90;1.60;;;10.00;99.90;;;;;;4951075;29;20130;-78
2023/12/29 02:31:38;;;;;;;3.72;1.88;;;10.00;99.90;;;;;;4951151;28;20430;-78
2023/12/29 02:34:06;;;;;;;2.63;1.70;;;10.00;99.90;;;;;;4950241;28;20031;-79
2023/12/29 02:36:34;;;;;;;3.00;1.88;;;10.00;99.90;;;;;;4951365;28;20024;-80
2023/12/29 02:38:59;;;;;;;3.50;1.55;;;10.00;99.90;;;;;;4957146;28;20031;-78
2023/12/29 02:41:25;;;;;;;3.20;1.77;;;10.00;99.90;;;;;;4946509;29;21740;-78
2023/12/29 02:43:51;;;;;;;4.10;1.73;;;10.00;99.90;;;;;;4948652;28;20027;-79
2023/12/29 02:46:22;;;;;;;3.92;1.80;;;9.90;99.90;;;;;;4950584;28;20034;-79
2023/12/29 02:48:48;;;;;;;4.35;1.83;;;9.90;99.90;;;;;;4947410;28;20039;-78
2023/12/29 02:51:13;;;;;;;3.67;1.77;;;9.90;99.90;;;;;;4948994;29;20023;-78
2023/12/29 02:53:39;;;;;;;2.85;1.70;;;10.00;99.90;;;;;;4950318;28;20026;-77
2023/12/29 02:56:05;;;;;;;2.75;1.58;;;9.90;99.90;;;;;;4965761;28;20118;-80
2023/12/29 02:58:30;;;;;;;3.58;1.80;;;9.90;99.90;;;;;;4948943;28;20028;-78
2023/12/29 03:00:56;;;;;;;3.13;1.65;;;10.00;99.90;;;;;;4950007;28;20370;-78
2023/12/29 03:03:22;;;;;;;2.28;1.42;;;10.00;99.90;;;;;;4948091;28;20035;-78
2023/12/29 03:05:47;;;;;;;2.20;1.30;;;10.00;99.90;;;;;;4950296;28;20031;-78
2023/12/29 03:08:13;;;;;;;2.75;1.50;;;10.00;99.90;;;;;;4945655;28;20097;-78
2023/12/29 03:10:38;;;;;;;3.75;1.20;;;10.00;99.90;;;;;;4948011;28;20057;-79
2023/12/29 03:13:04;;;;;;;2.92;1.30;;;10.00;99.90;;;;;;4946487;29;20031;-79
2023/12/29 03:15:29;;;;;;;2.35;1.30;;;10.00;99.90;;;;;;4947944;28;20039;-78
2023/12/29 03:17:55;;;;;;;2.45;1.30;;;10.00;99.90;;;;;;4948079;29;20026;-79
2023/12/29 03:20:21;;;;;;;4.63;1.27;;;10.00;99.90;;;;;;4944080;28;20450;-79
2023/12/29 03:22:46;;;;;;;1.65;1.05;;;10.00;99.90;;;;;;4947943;28;20501;-78
2023/12/29 03:25:15;;;;;;;1.23;0.80;;;10.00;99.90;;;;;;4945673;28;20032;-79
2023/12/29 03:27:40;;;;;;;1.80;1.20;;;9.90;99.90;;;;;;4952763;28;20027;-78
2023/12/29 03:30:06;;;;;;;3.72;0.90;;;9.90;99.90;;;;;;4945013;29;20181;-79
2023/12/29 03:32:38;;;;;;;1.38;0.90;;;9.90;99.90;;;;;;4953733;28;20027;-78
2023/12/29 03:35:04;;;;;;;1.45;1.08;;;9.80;99.90;;;;;;4953486;28;20032;-78
2023/12/29 03:37:30;;;;;;;2.17;1.10;;;9.80;99.90;;;;;;4951731;28;20051;-78
2023/12/29 03:39:55;;;;;;;2.72;1.15;;;9.70;99.90;;;;;;4950051;28;20040;-78
2023/12/29 03:42:24;;;;;;;2.15;1.27;;;9.70;99.90;;;;;;4950622;28;20023;-78
2023/12/29 03:44:49;;;;;;;1.80;1.20;;;9.60;99.90;;;;;;4953731;28;20402;-78
2023/12/29 03:47:15;;;;;;;5.03;1.58;;;9.60;99.90;;;;;;4954044;28;20031;-78
2023/12/29 03:49:40;;;;;;;2.13;1.38;;;9.60;99.90;;;;;;4953630;29;20042;-78
2023/12/29 03:52:06;;;;;;;1.73;1.10;;;9.50;99.90;;;;;;4965307;28;20062;-78
2023/12/29 03:54:32;;;;;;;1.95;1.20;;;9.50;99.90;;;;;;4949097;28;20058;-78
2023/12/29 03:56:57;;;;;;;1.50;1.40;;;9.50;99.90;;;;;;4953980;28;20050;-78
2023/12/29 03:59:23;;;;;;;2.35;1.17;;;9.60;99.90;;;;;;4955270;28;20079;-78
2023/12/29 04:01:48;;;;;;;2.35;1.30;;;9.50;99.90;;;;;;4951871;28;20031;-78
2023/12/29 04:04:14;;;;;;;2.83;1.40;;;9.60;99.90;;;;;;4951896;28;20040;-78
2023/12/29 04:06:42;;;;;;;2.33;1.20;;;9.60;99.90;;;;;;4955758;28;20035;-78
2023/12/29 04:09:08;;;;;;;2.38;1.23;;;9.60;99.90;;;;;;4950829;28;20031;-78
2023/12/29 04:11:33;;;;;;;2.78;1.02;;;9.60;99.90;;;;;;4948577;28;20498;-78
2023/12/29 04:13:59;;;;;;;1.80;1.10;;;9.60;99.90;;;;;;4946520;29;20028;-78
2023/12/29 04:16:25;;;;;;;1.50;1.02;;;9.60;99.90;;;;;;4971251;28;20525;-78
2023/12/29 04:18:50;;;;;;;2.90;1.27;;;9.60;99.90;;;;;;4952180;29;20019;-77
2023/12/29 04:21:16;;;;;;;2.67;1.15;;;9.70;99.90;;;;;;4955817;29;20019;-78
2023/12/29 04:23:44;;;;;;;2.17;1.25;;;9.60;99.90;;;;;;4956154;28;20059;-78
2023/12/29 04:26:10;;;;;;;2.13;1.40;;;9.70;99.90;;;;;;4948688;28;20034;-79
2023/12/29 04:28:36;;;;;;;2.22;1.40;;;9.70;99.90;;;;;;4957884;28;20033;-77
2023/12/29 04:31:01;;;;;;;2.38;1.30;;;9.70;99.90;;;;;;4964081;28;20047;-79
2023/12/29 04:33:30;;;;;;;1.33;0.90;;;9.70;99.90;;;;;;4951587;28;20049;-79
2023/12/29 04:35:55;;;;;;;3.20;1.35;;;9.70;99.90;;;;;;4948487;28;20394;-79
2023/12/29 04:38:21;;;;;;;3.75;1.42;;;9.70;99.90;;;;;;4949172;28;20028;-78
2023/12/29 04:40:47;;;;;;;1.98;1.42;;;9.70;99.90;;;;;;4950605;29;20556;-78
2023/12/29 04:43:15;;;;;;;2.47;1.50;;;9.70;99.90;;;;;;4949974;28;20035;-78
2023/12/29 04:45:50;;;;;;;1.98;1.20;;;9.70;99.90;;;;;;4949902;28;20483;-78
2023/12/29 04:48:15;;;;;;;2.47;1.75;;;9.70;99.90;;;;;;4963079;28;20131;-78
2023/12/29 04:50:41;;;;;;;2.42;1.30;;;9.70;99.90;;;;;;4949682;28;20067;-79
2023/12/29 04:53:07;;;;;;;2.17;1.20;;;9.70;99.90;;;;;;4953052;29;20031;-78
2023/12/29 04:55:38;;;;;;;1.73;1.13;;;9.80;99.90;;;;;;4967395;28;20061;-78
2023/12/29 04:58:04;;;;;;;4.63;1.45;;;9.70;99.90;;;;;;4950934;28;20493;-78
2023/12/29 05:00:29;;;;;;;2.28;1.20;;;9.70;99.90;;;;;;4945550;28;20027;-79
2023/12/29 05:02:55;;;;;;;2.08;1.50;;;9.70;99.90;;;;;;4951640;28;20032;-78
2023/12/29 05:05:20;;;;;;;2.15;1.52;;;9.80;99.90;;;;;;4948490;29;20034;-78
2023/12/29 05:07:46;;;;;;;2.17;1.35;;;9.80;99.90;;;;;;4954390;28;20023;-77
2023/12/29 05:10:11;;;;;;;2.15;1.40;;;9.80;99.90;;;;;;4942022;28;20070;-78
2023/12/29 05:12:37;;;;;;;1.48;1.20;;;9.70;99.90;;;;;;4952406;28;20046;-79
2023/12/29 05:15:03;;;;;;;1.65;1.25;;;9.70;99.90;;;;;;4952798;28;20027;-79
2023/12/29 05:17:29;;;;;;;2.05;1.00;;;9.70;99.90;;;;;;4950766;29;20024;-78
2023/12/29 05:19:55;;;;;;;2.92;1.40;;;9.70;99.90;;;;;;4948559;28;20122;-78
2023/12/29 05:22:20;;;;;;;1.92;1.20;;;9.70;99.90;;;;;;4949835;28;20156;-81
2023/12/29 05:24:46;;;;;;;2.35;1.20;;;9.70;99.90;;;;;;4951500;28;20107;-78
2023/12/29 05:27:11;;;;;;;2.55;1.38;;;9.60;99.90;;;;;;4952602;28;20114;-79
2023/12/29 05:29:37;;;;;;;1.70;1.38;;;9.60;99.90;;;;;;4951260;28;20028;-78
2023/12/29 05:32:04;;;;;;;2.25;1.45;;;9.70;99.90;;;;;;4949237;28;20051;-78
2023/12/29 05:34:29;;;;;;;1.40;1.20;;;9.70;99.90;;;;;;4947246;28;20032;-79
2023/12/29 05:36:55;;;;;;;3.40;1.10;;;9.60;99.90;;;;;;4952752;28;20482;-78
2023/12/29 05:39:24;;;;;;;1.75;1.10;;;9.70;99.90;;;;;;4950123;28;20080;-77
2023/12/29 05:41:49;;;;;;;4.53;1.77;;;9.60;99.90;;;;;;4949940;28;20031;-78
2023/12/29 05:44:15;;;;;;;4.22;1.50;;;9.60;99.90;;;;;;4948567;28;20042;-78
2023/12/29 05:46:41;;;;;;;5.18;1.40;;;9.60;99.90;;;;;;4950280;28;20027;-78
2023/12/29 05:49:06;;;;;;;4.93;1.25;;;9.60;99.90;;;;;;4952255;28;20027;-78
2023/12/29 05:51:32;;;;;;;1.40;1.23;;;9.60;99.90;;;;;;4950780;28;20391;-78
2023/12/29 05:53:58;;;;;;;2.28;1.33;;;9.60;99.90;;;;;;4950155;29;20034;-78
2023/12/29 05:56:23;;;;;;;3.03;1.10;;;9.60;99.90;;;;;;4955561;28;20401;-79
2023/12/29 05:58:49;;;;;;;1.95;1.00;;;9.60;99.90;;;;;;4948479;28;20094;-69
2023/12/29 06:01:15;;;;;;;4.75;0.90;;;9.60;99.90;;;;;;4961469;28;20490;-69
2023/12/29 06:03:40;;;;;;;1.75;1.20;;;9.90;99.90;;;;;;4950562;28;20051;-69
2023/12/29 06:06:12;;;;;;;2.28;1.10;;;10.10;99.90;;;;;;4951356;28;20427;-69
2023/12/29 06:08:37;;;;;;;1.88;1.10;;;10.30;99.90;;;;;;4953941;28;20061;-70
2023/12/29 06:11:03;;;;;;;1.52;0.93;;;10.30;99.90;;;;;;4948056;28;20494;-70
2023/12/29 06:13:29;;;;;;;1.55;0.88;;;10.40;99.90;;;;;;4947382;28;20031;-69
2023/12/29 06:15:55;;;;;;;1.80;0.80;;;10.60;99.90;;;;;;4951934;28;20024;-78
2023/12/29 06:18:24;;;;;;;1.10;0.90;;;10.60;99.90;;;;;;4952451;29;20012;-79
2023/12/29 06:20:49;;;;;;;1.77;0.73;;;10.60;99.90;;;;;;4955673;28;20055;-77
2023/12/29 06:23:16;;;;;;;1.35;0.90;;;10.50;99.90;;;;;;4951634;28;20023;-78
2023/12/29 06:25:42;;;;;;;2.03;0.93;;;10.40;99.90;;;;;;4948724;28;20025;-76
2023/12/29 06:28:08;;;;;;;1.23;0.80;;;10.30;99.90;;;;;;4950698;28;20106;-78
2023/12/29 06:30:39;;;;;;;2.17;0.75;;;10.30;99.90;;;;;;4954286;28;20506;-78
2023/12/29 06:33:05;;;;;;;1.67;0.90;;;10.30;99.90;;;;;;4953515;28;20035;-77
2023/12/29 06:35:30;;;;;;;2.55;0.70;;;10.20;99.90;;;;;;4965591;28;20031;-76
2023/12/29 06:37:56;;;;;;;1.40;0.90;;;10.20;99.90;;;;;;4952887;28;20024;-78
2023/12/29 06:40:22;;;;;;;1.50;0.88;;;10.20;99.90;;;;;;4953926;28;20055;-78
2023/12/29 06:42:47;;;;;;;0.93;0.70;;;10.20;99.90;;;;;;4962500;28;20038;-78
2023/12/29 06:45:13;;;;;;;2.95;1.08;;;10.20;99.90;;;;;;4963913;28;20039;-79
2023/12/29 06:47:38;;;;;;;1.65;0.85;;;10.10;99.90;;;;;;4957451;28;20027;-78
2023/12/29 06:50:06;;;;;;;1.67;0.98;;;10.10;99.90;;;;;;4955665;28;20028;-78
2023/12/29 06:52:34;;;;;;;1.20;0.80;;;10.10;99.90;;;;;;4972460;28;20183;-79
2023/12/29 06:55:01;;;;;;;1.17;0.90;;;10.10;99.90;;;;;;4972354;23;20050;-86
2023/12/29 06:57:27;;;;;;;1.77;0.95;;;10.10;99.90;;;;;;4992765;28;20058;-86
2023/12/29 06:59:52;;;;;;;1.10;0.80;;;10.10;99.90;;;;;;5010959;28;20049;-86
2023/12/29 07:02:18;;;;;;;2.70;1.00;;;10.10;99.90;;;;;;4999588;28;20297;-86
2023/12/29 07:04:44;;;;;;;2.08;0.90;;;10.10;99.90;;;;;;4997815;28;20083;-86
2023/12/29 07:07:09;;;;;;;0.80;0.60;;;10.00;99.90;;;;;;4995453;28;20510;-86
2023/12/29 07:09:39;;;;;;;1.08;0.65;;;10.00;99.90;;;;;;4995652;28;20026;-84
2023/12/29 07:12:05;;;;;;;1.95;1.00;;;10.00;99.90;;;;;;4995563;28;20026;-87
2023/12/29 07:14:31;;;;;;;2.83;1.10;;;10.00;99.90;;;;;;5014040;28;20025;-88
2023/12/29 07:16:58;;;;;;;1.13;0.70;;;9.90;99.90;;;;;;4995281;28;20018;-88
2023/12/29 07:19:23;;;;;;;1.33;0.77;;;9.90;99.90;;;;;;4993000;28;20366;-88
2023/12/29 07:21:49;;;;;;;2.22;0.70;;;9.90;99.90;;;;;;4995632;28;20029;-86
2023/12/29 07:24:14;;;;;;;1.08;0.70;;;9.90;99.90;;;;;;4994530;28;20026;-87
2023/12/29 07:26:40;;;;;;;1.42;1.02;;;9.80;99.90;;;;;;4991158;28;20058;-88
2023/12/29 07:29:06;;;;;;;1.45;1.00;;;9.80;99.90;;;;;;4993324;28;20108;-88
2023/12/29 07:31:33;;;;;;;1.35;1.00;;;9.80;99.90;;;;;;4995702;28;20013;-88
2023/12/29 07:33:59;;;;;;;2.33;0.85;;;9.80;99.90;;;;;;4993834;28;20463;-87
2023/12/29 07:36:24;;;;;;;1.00;0.73;;;9.80;99.90;;;;;;5012889;28;20489;-88
2023/12/29 07:38:50;;;;;;;1.73;0.90;;;9.80;99.90;;;;;;5012429;28;20017;-88
2023/12/29 07:41:16;;;;;;;1.70;0.95;;;9.80;99.90;;;;;;4989193;28;20128;-87
2023/12/29 07:43:41;;;;;;;3.08;0.90;;;9.80;99.90;;;;;;4997787;28;20022;-88
2023/12/29 07:46:07;;;;;;;1.48;0.90;;;9.80;99.90;;;;;;4989532;28;20198;-88
2023/12/29 07:48:32;;;;;;;2.13;1.02;;;9.70;99.90;;;;;;4994663;28;20053;-88
2023/12/29 07:51:05;;;;;;;1.48;0.82;;;9.70;99.90;;;;;;4993969;28;20084;-88
2023/12/29 07:53:31;;;;;;;3.22;1.13;;;9.70;99.90;;;;;;4995077;28;20109;-88
2023/12/29 07:55:56;;;;;;;2.70;0.85;;;9.80;99.90;;;;;;4993873;28;20109;-88
2023/12/29 07:58:22;;;;;;;3.47;0.88;;;9.80;99.90;;;;;;4991014;28;20030;-88
2023/12/29 08:00:47;;;;;;;2.97;0.70;;;9.80;99.90;;;;;;5008208;28;20030;-87
2023/12/29 08:03:13;;;;;;;1.90;0.98;;;9.80;99.90;;;;;;4993933;28;20022;-87
2023/12/29 08:05:39;;;;;;;3.47;1.83;;;9.80;99.90;;;;;;4994596;28;20362;-87
2023/12/29 08:08:05;;;;;;;2.10;1.20;;;9.80;99.90;;;;;;4993908;28;20053;-88
2023/12/29 08:10:31;;;;;;;1.48;0.88;;;9.80;99.90;;;;;;4994920;28;20475;-88
2023/12/29 08:12:57;;;;;;;1.63;0.90;;;9.80;99.90;;;;;;4990705;28;20034;-88
2023/12/29 08:15:23;;;;;;;2.65;0.80;;;9.80;99.90;;;;;;4991081;28;20030;-88
2023/12/29 08:17:48;;;;;;;1.58;0.90;;;9.80;99.90;;;;;;4993712;28;20037;-88
2023/12/29 08:20:14;;;;;;;1.30;0.90;;;9.90;99.90;;;;;;4989407;28;20116;-87
2023/12/29 08:22:40;;;;;;;3.08;1.10;;;10.00;99.90;;;;;;4989674;28;20088;-87
2023/12/29 08:25:06;;;;;;;1.65;0.80;;;10.00;99.90;;;;;;4990938;28;20577;-87
2023/12/29 08:27:31;;;;;;;3.28;0.90;;;10.00;99.90;;;;;;4988621;28;20030;-87
2023/12/29 08:29:57;;;;;;;2.55;1.10;;;10.10;99.90;;;;;;5010654;28;20037;-87
2023/12/29 08:32:22;;;;;;;1.52;0.90;;;10.10;99.90;;;;;;4996180;28;20121;-87
2023/12/29 08:34:48;;;;;;;2.10;0.98;;;10.20;99.90;;;;;;4991114;28;20114;-87
2023/12/29 08:37:19;;;;;;;1.10;0.50;;;10.30;99.90;;;;;;4992075;28;20129;-87
2023/12/29 08:39:48;;;;;;;2.22;0.60;;;10.30;99.90;;;;;;4991381;28;20071;-87
2023/12/29 08:42:14;;;;;;;1.40;0.68;;;10.40;99.90;;;;;;4991931;28;20026;-88
2023/12/29 08:44:40;;;;;;;0.77;0.57;;;10.40;99.90;;;;;;4989757;28;20522;-87
2023/12/29 08:47:08;;;;;;;2.05;0.90;;;10.50;99.90;;;;;;5011330;28;20030;-88
2023/12/29 08:49:35;;;;;;;1.27;0.50;;;10.50;99.90;;;;;;4991842;28;20061;-87
2023/12/29 08:52:00;;;;;;;1.00;0.70;;;10.50;99.90;;;;;;4993086;28;20030;-88
2023/12/29 08:54:27;;;;;;;1.48;0.70;;;10.60;99.90;;;;;;5008540;28;20033;-88
2023/12/29 08:56:52;;;;;;;1.25;0.60;;;10.70;99.90;;;;;;4992285;28;20025;-88
2023/12/29 08:59:18;;;;;;;3.42;1.70;;;10.80;99.90;;;;;;4994188;28;20498;-88
2023/12/29 09:01:44;;;;;;;0.93;0.60;;;10.90;99.90;;;;;;5011716;28;20029;-88
2023/12/29 09:04:12;;;;;;;0.73;0.50;;;10.90;99.90;;;;;;4993496;28;20026;-87
2023/12/29 09:06:38;;;;;;;1.10;0.70;;;10.90;99.90;;;;;;4990932;28;20046;-88
2023/12/29 09:09:04;;;;;;;1.35;0.60;;;11.00;99.90;;;;;;4990476;28;20022;-88
2023/12/29 09:11:30;;;;;;;1.10;0.60;;;11.10;99.90;;;;;;4991555;28;20025;-87
2023/12/29 09:13:57;;;;;;;2.93;1.57;;;11.10;99.90;;;;;;5009903;28;20072;-88
2023/12/29 09:16:25;;;;;;;1.35;0.82;;;11.10;99.90;;;;;;4992998;28;20758;-88
2023/12/29 09:18:51;;;;;;;0.90;0.60;;;11.20;99.90;;;;;;4992574;28;20022;-88
2023/12/29 09:21:16;;;;;;;1.73;0.82;;;11.20;99.90;;;;;;4993228;28;20184;-87
2023/12/29 09:23:42;;;;;;;1.02;0.55;;;11.30;99.90;;;;;;4993014;28;20030;-88
2023/12/29 09:26:07;;;;;;;1.33;0.75;;;11.40;99.90;;;;;;4993951;28;20053;-88
2023/12/29 09:28:34;;;;;;;2.58;0.85;;;11.30;99.90;;;;;;4992817;28;20021;-88
2023/12/29 09:31:00;;;;;;;1.42;0.70;;;11.40;99.90;;;;;;4992579;28;20053;-88
2023/12/29 09:33:26;;;;;;;0.85;0.63;;;11.40;99.90;;;;;;4988346;28;20073;-88
2023/12/29 09:35:51;;;;;;;1.08;0.60;;;11.40;99.90;;;;;;5010737;28;20443;-88
2023/12/29 09:38:18;;;;;;;1.48;0.60;;;11.40;99.90;;;;;;4992999;28;20025;-88
2023/12/29 09:40:44;;;;;;;1.23;0.70;;;11.40;99.90;;;;;;4993083;28;20117;-88
2023/12/29 09:43:10;;;;;;;0.50;0.50;;;11.50;99.90;;;;;;4990875;28;20537;-88
2023/12/29 09:45:38;;;;;;;0.98;0.65;;;11.50;99.90;;;;;;4991851;28;20403;-88
2023/12/29 09:48:07;;;;;;;1.95;0.70;;;11.50;99.90;;;;;;4993840;28;20036;-88
2023/12/29 09:50:35;;;;;;;2.55;0.50;;;11.60;99.90;;;;;;4991598;28;20025;-88
2023/12/29 09:53:02;;;;;;;0.70;0.50;;;11.60;99.90;;;;;;4992516;28;20029;-88
2023/12/29 09:55:28;;;;;;;0.70;0.50;;;11.60;99.90;;;;;;5008169;28;20030;-88
2023/12/29 09:57:55;;;;;;;0.70;0.50;;;11.60;99.90;;;;;;4992746;28;20026;-88
2023/12/29 10:00:21;;;;;;;0.85;0.50;;;11.70;99.90;;;;;;5010989;28;20496;-88
2023/12/29 10:02:50;;;;;;;0.70;0.60;;;11.70;99.90;;;;;;4991446;28;20438;-88
2023/12/29 10:05:16;;;;;;;1.48;0.68;;;11.80;99.90;;;;;;4993001;28;20030;-88
2023/12/29 10:07:44;;;;;;;1.20;0.68;;;11.80;99.90;;;;;;4989949;28;20517;-88
2023/12/29 10:10:15;;;;;;;1.40;0.55;;;11.90;99.90;;;;;;4987350;28;20474;-88
2023/12/29 10:12:42;;;;;;;0.80;0.55;;;11.90;99.90;;;;;;4990578;28;20034;-88
2023/12/29 10:15:19;;;;;;;1.95;0.65;;;11.90;99.90;;;;;;5006732;28;20029;-88
2023/12/29 10:17:48;;;;;;;1.40;0.70;;;11.90;99.90;;;;;;4987734;28;20084;-88
2023/12/29 10:20:27;;;;;;;2.05;0.98;;;11.90;99.90;;;;;;4992254;28;20022;-88
2023/12/29 10:22:59;;;;;;;1.95;0.60;;;11.90;99.90;;;;;;4992883;28;20022;-88
2023/12/29 10:25:25;;;;;;;1.13;0.82;;;11.90;99.90;;;;;;4986756;28;20117;-88
2023/12/29 10:27:51;;;;;;;1.23;0.77;;;11.90;99.90;;;;;;5004785;28;20104;-88
2023/12/29 10:30:18;;;;;;;3.47;1.90;;;11.90;99.90;;;;;;4992897;28;20029;-88
2023/12/29 10:32:49;;;;;;;1.50;0.93;;;11.90;99.90;;;;;;5007517;28;20026;-88
2023/12/29 10:35:18;;;;;;;0.95;0.60;;;11.90;99.90;;;;;;4990387;28;20038;-88
2023/12/29 10:37:43;;;;;;;1.10;0.52;;;11.80;99.90;;;;;;4995649;28;20032;-88
2023/12/29 10:40:16;;;;;;;1.27;0.60;;;11.80;99.90;;;;;;4994482;28;20030;-88
2023/12/29 10:42:53;;;;;;;1.00;0.60;;;11.80;99.90;;;;;;4991896;28;20018;-88
2023/12/29 10:45:19;;;;;;;2.17;0.70;;;11.80;99.90;;;;;;4994836;28;20034;-87
2023/12/29 10:47:44;;;;;;;1.10;0.60;;;11.90;99.90;;;;;;4994758;28;20088;-88
2023/12/29 10:50:10;;;;;;;1.83;0.52;;;11.90;99.90;;;;;;5012698;28;20022;-87
2023/12/29 10:52:37;;;;;;;0.85;0.55;;;11.90;99.90;;;;;;4994534;28;20036;-88
2023/12/29 10:55:11;;;;;;;1.33;0.60;;;11.90;99.90;;;;;;4995285;28;20474;-88
2023/12/29 10:57:37;;;;;;;;;;;11.90;99.90;;;;;;4996865;28;20053;-87
2023/12/29 11:00:05;;;;;;;1.17;0.77;;;11.90;99.90;;;;;;5014224;28;19931;-87
2023/12/29 11:02:32;;;;;;;1.80;0.60;;;11.90;99.90;;;;;;5012667;28;20030;-88
2023/12/29 11:05:08;;;;;;;2.33;0.93;;;11.90;99.90;;;;;;4993765;28;20026;-88
2023/12/29 11:07:36;;;;;;;1.52;0.90;;;11.90;99.90;;;;;;4991897;28;20057;-88
2023/12/29 11:10:04;;;;;;;2.08;0.82;;;11.90;99.90;;;;;;4995647;28;20081;-88
2023/12/29 11:12:33;;;;;;;1.25;0.68;;;11.90;99.90;;;;;;4994871;28;20060;-87
2023/12/29 11:15:02;;;;;;;0.90;0.60;;;11.90;99.90;;;;;;5012096;28;20027;-87
2023/12/29 11:17:30;;;;;;;1.05;0.60;;;11.80;99.90;;;;;;5005018;28;20026;-88
2023/12/29 11:19:57;;;;;;;1.63;0.82;;;11.90;99.90;;;;;;5015238;28;20026;-88
2023/12/29 11:22:24;;;;;;;1.40;0.90;;;11.90;99.90;;;;;;4996187;28;20117;-88
2023/12/29 11:24:50;;;;;;;1.15;0.68;;;12.00;99.90;;;;;;5009296;28;20025;-88
2023/12/29 11:27:16;;;;;;;0.70;0.60;;;12.00;99.90;;;;;;4996321;28;20548;-88
2023/12/29 11:29:42;;;;;;;0.90;0.60;;;12.10;99.90;;;;;;4993995;28;20394;-88
2023/12/29 11:32:16;;;;;;;1.27;0.70;;;12.10;99.90;;;;;;5011557;28;20029;-88
2023/12/29 11:34:52;;;;;;;2.33;1.00;;;12.20;99.90;;;;;;4991230;28;20029;-88
2023/12/29 11:37:41;;;;;;;1.70;0.85;;;12.20;99.90;;;;;;4991961;28;20034;-88
2023/12/29 11:40:41;;;;;;;1.42;0.95;;;12.30;99.90;;;;;;4990953;28;20049;-88
2023/12/29 11:43:12;;;;;;;1.80;0.80;;;12.30;99.90;;;;;;5012079;28;20037;-87
2023/12/29 11:45:39;;;;;;;1.38;0.80;;;12.30;99.90;;;;;;4994875;28;20038;-86
2023/12/29 11:48:05;;;;;;;2.08;0.73;;;12.30;99.90;;;;;;5008313;28;20073;-86
2023/12/29 11:50:42;;;;;;;1.75;0.77;;;12.20;99.90;;;;;;4992659;28;20026;-86
2023/12/29 11:53:11;;;;;;;2.25;0.70;;;12.20;99.90;;;;;;4995191;28;20028;-86
2023/12/29 11:55:38;;;;;;;0.80;0.70;;;12.20;99.90;;;;;;5010744;28;20475;-86
2023/12/29 11:58:23;;;;;;;2.35;0.70;;;12.20;99.90;;;;;;4993565;28;20068;-86
2023/12/29 12:00:49;;;;;;;1.00;0.70;;;12.20;99.90;;;;;;5006695;28;20026;-86
2023/12/29 12:03:25;;;;;;;2.00;0.70;;;12.20;99.90;;;;;;4992940;28;20052;-86
2023/12/29 12:05:52;;;;;;;0.82;0.73;;;12.20;99.90;;;;;;4989054;28;20022;-86
2023/12/29 12:08:35;;;;;;;1.15;0.60;;;12.10;99.90;;;;;;5006898;28;20112;-86
2023/12/29 12:11:36;;;;;;;3.75;1.17;;;12.10;99.90;;;;;;5004418;28;20022;-86
2023/12/29 12:14:01;;;;;;;0.77;0.60;;;12.00;99.90;;;;;;4977877;28;20113;-85
2023/12/29 12:16:42;;;;;;;1.52;0.90;;;12.00;99.90;;;;;;5010478;28;20117;-85
2023/12/29 12:19:09;;;;;;;1.67;0.73;;;11.90;99.90;;;;;;5006759;28;20077;-86
2023/12/29 12:21:36;;;;;;;1.50;1.00;;;11.90;99.90;;;;;;4990098;28;20029;-85
2023/12/29 12:24:04;;;;;;;1.63;0.70;;;12.00;99.90;;;;;;4995675;28;20024;-85
2023/12/29 12:26:31;;;;;;;1.38;0.80;;;12.00;99.90;;;;;;4991216;28;20022;-85
2023/12/29 12:28:57;;;;;;;1.60;0.88;;;12.00;99.90;;;;;;4992050;28;20038;-86
2023/12/29 12:31:23;;;;;;;2.42;1.10;;;12.00;99.90;;;;;;5009412;28;20022;-86
2023/12/29 12:33:55;;;;;;;4.55;1.13;;;12.00;99.90;;;;;;5007499;28;20041;-86
2023/12/29 12:36:21;;;;;;;2.55;1.13;;;12.00;99.90;;;;;;5007244;28;20030;-86
2023/12/29 12:38:53;;;;;;;1.00;0.70;;;12.00;99.90;;;;;;5006474;28;21873;-86
2023/12/29 12:41:21;;;;;;;0.70;0.65;;;12.00;99.90;;;;;;5006130;28;20083;-86
2023/12/29 12:43:53;;;;;;;1.35;0.70;;;12.00;99.90;;;;;;5007867;28;20073;-86
2023/12/29 12:46:26;;;;;;;4.40;1.67;;;12.00;99.90;;;;;;4989900;28;20074;-86
2023/12/29 12:48:55;;;;;;;1.98;0.95;;;12.00;99.90;;;;;;5009493;28;20030;-86
2023/12/29 12:51:21;;;;;;;0.75;0.52;;;12.00;99.90;;;;;;5010818;28;20026;-86